Littleton, CO (80120)

10:57 PM MST on December 07, 2016 (GMT -0700)
Bel-Vue Heights | | Change Station

Elev 5541 ft 39.58 °N, 105.01 °W | Updated 10 seconds ago

Partly Cloudy
Partly Cloudy
3.0 °F
Feels Like 3 °F
N
0.0
Wind Variable Wind from ENE
Gusts 0.0 mph

Today
High -- | Low -- °F
--% Chance of Precip.
Yesterday
High -- | Low -- °F
Precip. -- in
Pressure 30.68 in
Visibility 10.0 miles
Clouds Few 1400 ft
Windchill 3 °F
Dew Point -4 °F
Humidity 73%
Rainfall 0.00 in
Snow Depth Not available.
7:07 AM 4:35 PM
First Quarter, 60% visible
METAR KAPA 080553Z 16005KT 10SM FEW014 M17/M19 A3035 RMK AO2 SLP389 60000 I1000 I6000 T11721189 11133 21172 53009
Pressure 30.68 in
Visibility 10.0 miles
Clouds Few 1400 ft
Windchill 3 °F
Dew Point -4 °F
Humidity 73%
Rainfall 0.00 in
Snow Depth Not available.
7:07 AM 4:35 PM
First Quarter, 60% visible
METAR KAPA 080553Z 16005KT 10SM FEW014 M17/M19 A3035 RMK AO2 SLP389 60000 I1000 I6000 T11721189 11133 21172 53009

10-Day Weather Forecast

Almanac

Astronomy

Dec. 07, 2016 Rise Set
Actual Time
Civil Twilight
Nautical Twilight
Astronomical Twilight
Moon
Length of Visible Light
Length of Day
Tomorrow will be .
, % of the Moon is Illuminated

Today's Extremes

State Highs State Lows

Community

WunderPhotos

Upload Photos

1,956,259 photos uploaded!

WunderBlog® & News

Nearby

Air Quality

  Air Quality AQ Index Pollutant
Not available.

Snow Depth

Station Depth Elevation

Earthquake Activity

City Distance Mag. Time & Date
Minimum magnitude displayed is 2.5.

Coastal Water Temperatures

Place Temperature

Stations

Nearby Weather Stations

Station Location Temp. Windchill Dew Point Humidity Wind Precip. Elev Updated Type
                   

Watches & Warnings

There are currently no watches in effect.